createdAt,value
2022-10-15T00:01:08.738Z,7.82
2022-10-15T00:03:38.610Z,9.30
2022-10-15T00:06:08.463Z,8.13
2022-10-15T00:08:36.991Z,7.60
2022-10-15T00:11:07.549Z,11.07
2022-10-15T00:13:37.217Z,8.52
2022-10-15T00:16:05.969Z,10.65
2022-10-15T00:18:34.029Z,9.85
2022-10-15T00:21:02.908Z,8.70
2022-10-15T00:23:32.367Z,9.10
2022-10-15T00:26:06.016Z,8.13
2022-10-15T00:28:34.610Z,8.93
2022-10-15T00:31:06.222Z,10.95
2022-10-15T00:33:34.384Z,17.95
2022-10-15T00:36:05.453Z,8.27
2022-10-15T00:38:34.124Z,9.55
2022-10-15T00:41:02.653Z,9.90
2022-10-15T00:43:41.396Z,8.00
2022-10-15T00:46:19.233Z,8.07
2022-10-15T00:48:51.138Z,8.70
2022-10-15T00:51:21.616Z,10.27
2022-10-15T00:53:51.344Z,7.90
2022-10-15T00:56:23.227Z,7.45
2022-10-15T00:58:53.430Z,7.78
2022-10-15T01:01:23.360Z,6.72
2022-10-15T01:03:51.604Z,8.55
2022-10-15T01:06:19.871Z,7.65
2022-10-15T01:08:48.034Z,8.55
2022-10-15T01:11:31.960Z,7.07
2022-10-15T01:14:14.910Z,7.75
2022-10-15T01:16:48.304Z,9.05
2022-10-15T01:19:32.667Z,6.60
2022-10-15T01:22:05.600Z,6.82
2022-10-15T01:25:03.531Z,6.78
2022-10-15T01:27:35.981Z,6.05
2022-10-15T01:30:20.263Z,9.88
2022-10-15T01:33:28.508Z,7.70
2022-10-15T01:36:06.660Z,8.13
2022-10-15T01:38:43.058Z,8.38
2022-10-15T01:41:13.561Z,7.20
2022-10-15T01:43:47.888Z,7.32
2022-10-15T01:46:42.352Z,6.30
2022-10-15T01:49:17.526Z,5.65
2022-10-15T01:51:45.987Z,8.88
2022-10-15T01:54:19.317Z,9.68
2022-10-15T01:56:50.741Z,9.73
2022-10-15T01:59:26.293Z,7.43
2022-10-15T02:01:58.074Z,8.73
2022-10-15T02:04:28.391Z,5.80
2022-10-15T02:07:03.589Z,6.18
2022-10-15T02:09:43.866Z,6.22
2022-10-15T02:12:27.421Z,5.47
2022-10-15T02:15:01.853Z,5.50
2022-10-15T02:17:37.058Z,6.38
2022-10-15T02:20:10.864Z,6.20
2022-10-15T02:23:09.010Z,7.38
2022-10-15T02:25:40.203Z,6.13
2022-10-15T02:28:10.209Z,7.75
2022-10-15T02:30:39.926Z,4.85
2022-10-15T02:33:14.272Z,5.65
2022-10-15T02:35:44.108Z,6.78
2022-10-15T02:38:15.003Z,7.80
2022-10-15T02:40:44.827Z,4.85
2022-10-15T02:43:15.869Z,5.03
2022-10-15T02:45:44.027Z,6.25
2022-10-15T02:48:13.518Z,6.90
2022-10-15T02:50:41.729Z,6.28
2022-10-15T02:53:09.845Z,10.45
2022-10-15T02:55:38.255Z,5.55
2022-10-15T02:58:06.351Z,6.15
2022-10-15T03:00:34.532Z,4.30
2022-10-15T03:03:03.378Z,5.70
2022-10-15T03:05:32.888Z,6.28
2022-10-15T03:08:01.249Z,4.45
2022-10-15T03:10:30.465Z,8.07
2022-10-15T03:13:04.632Z,8.48
2022-10-15T03:15:37.379Z,6.18
2022-10-15T03:18:06.661Z,5.82
2022-10-15T03:20:37.630Z,5.00
2022-10-15T03:23:05.690Z,5.78
2022-10-15T03:25:34.060Z,5.20
2022-10-15T03:28:05.598Z,4.95
2022-10-15T03:30:38.626Z,6.45
2022-10-15T03:33:07.702Z,8.95
2022-10-15T03:35:38.901Z,4.82
2022-10-15T03:38:07.946Z,6.60
2022-10-15T03:40:36.611Z,6.30
2022-10-15T03:43:24.353Z,6.30
2022-10-15T03:45:53.988Z,6.55
2022-10-15T03:48:24.925Z,5.18
2022-10-15T03:50:54.371Z,4.47
2022-10-15T03:53:22.521Z,7.18
2022-10-15T03:55:51.379Z,9.30
2022-10-15T03:58:19.403Z,9.40
2022-10-15T04:00:54.777Z,6.20
2022-10-15T04:03:23.553Z,4.88
2022-10-15T04:05:54.156Z,4.47
2022-10-15T04:08:26.801Z,6.35
2022-10-15T04:10:55.349Z,5.45
2022-10-15T04:13:23.434Z,5.25
2022-10-15T04:15:51.917Z,6.85
2022-10-15T04:18:21.821Z,6.43
2022-10-15T04:20:54.134Z,4.43
2022-10-15T04:23:24.546Z,5.93
2022-10-15T04:26:32.525Z,6.18
2022-10-15T04:29:02.070Z,5.00
2022-10-15T04:31:31.875Z,5.10
2022-10-15T04:34:00.666Z,5.47
2022-10-15T04:36:29.347Z,7.05
2022-10-15T04:39:01.924Z,4.72
2022-10-15T04:41:38.355Z,6.15
2022-10-15T04:44:13.152Z,4.38
2022-10-15T04:46:43.045Z,5.75
2022-10-15T04:49:43.383Z,5.53
2022-10-15T04:52:36.234Z,8.10
2022-10-15T04:55:08.937Z,7.68
2022-10-15T04:57:41.418Z,6.63
2022-10-15T05:00:10.741Z,6.57
2022-10-15T05:03:01.650Z,7.63
2022-10-15T05:06:02.055Z,5.38
2022-10-15T05:08:31.376Z,4.45
2022-10-15T05:11:27.663Z,4.80
2022-10-15T05:13:59.008Z,7.45
2022-10-15T05:16:29.072Z,6.68
2022-10-15T05:19:00.848Z,5.30
2022-10-15T05:21:32.256Z,5.03
2022-10-15T05:24:05.350Z,5.35
2022-10-15T05:26:54.345Z,5.03
2022-10-15T05:29:25.932Z,4.60
2022-10-15T05:31:54.445Z,5.70
2022-10-15T05:34:28.652Z,5.95
2022-10-15T05:37:01.682Z,4.93
2022-10-15T05:39:29.953Z,4.65
2022-10-15T05:41:58.162Z,4.03
2022-10-15T05:44:43.775Z,4.28
2022-10-15T05:47:12.505Z,5.93
2022-10-15T05:49:42.222Z,4.07
2022-10-15T05:52:18.037Z,5.50
2022-10-15T05:55:09.307Z,5.05
2022-10-15T05:57:37.617Z,5.00
2022-10-15T06:00:08.926Z,5.72
2022-10-15T06:02:42.666Z,2.85
2022-10-15T06:05:10.754Z,3.53
2022-10-15T06:07:38.675Z,5.13
2022-10-15T06:10:07.455Z,4.30
2022-10-15T06:12:35.496Z,2.97
2022-10-15T06:15:03.466Z,3.10
2022-10-15T06:17:33.057Z,2.90
2022-10-15T06:20:01.055Z,4.95
2022-10-15T06:22:32.337Z,3.33
2022-10-15T06:25:00.328Z,3.15
2022-10-15T06:27:29.433Z,2.30
2022-10-15T06:29:57.470Z,3.70
2022-10-15T06:32:25.607Z,3.60
2022-10-15T06:34:55.211Z,1.90
2022-10-15T06:37:23.677Z,1.85
2022-10-15T06:39:52.400Z,1.75
2022-10-15T06:42:20.335Z,2.63
2022-10-15T06:44:49.251Z,1.40
2022-10-15T06:47:18.267Z,2.20
2022-10-15T06:49:48.643Z,1.95
2022-10-15T06:52:18.010Z,0.98
2022-10-15T06:54:46.076Z,1.65
2022-10-15T06:57:15.338Z,1.23
2022-10-15T06:59:43.400Z,1.02
2022-10-15T07:02:14.091Z,1.85
2022-10-15T07:04:42.144Z,2.47
2022-10-15T07:07:10.236Z,2.13
2022-10-15T07:09:39.736Z,1.63
2022-10-15T07:12:08.031Z,3.10
2022-10-15T07:14:40.006Z,1.85
2022-10-15T07:17:10.317Z,1.40
2022-10-15T07:19:38.306Z,1.77
2022-10-15T07:22:06.303Z,2.30
2022-10-15T07:24:34.280Z,1.13
2022-10-15T07:27:07.959Z,0.98
2022-10-15T07:29:36.463Z,0.60
2022-10-15T07:32:04.535Z,0.73
2022-10-15T07:34:32.603Z,1.27
2022-10-15T07:37:00.707Z,2.03
2022-10-15T07:39:28.735Z,1.33
2022-10-15T07:41:56.755Z,2.10
2022-10-15T07:44:26.235Z,3.05
2022-10-15T07:46:54.267Z,2.63
2022-10-15T07:49:22.381Z,2.88
2022-10-15T07:51:50.349Z,2.55
2022-10-15T07:54:18.302Z,1.52
2022-10-15T07:56:46.302Z,3.28
2022-10-15T07:59:14.399Z,4.93
2022-10-15T08:01:45.911Z,3.28
2022-10-15T08:04:16.541Z,2.20
2022-10-15T08:06:46.323Z,2.47
2022-10-15T08:09:14.367Z,3.35
2022-10-15T08:11:42.432Z,2.92
2022-10-15T08:14:11.391Z,1.02
2022-10-15T08:16:39.870Z,1.02
2022-10-15T08:19:09.512Z,3.38
2022-10-15T08:21:37.682Z,2.17
2022-10-15T08:24:06.860Z,2.13
2022-10-15T08:26:35.297Z,2.63
2022-10-15T08:29:03.552Z,1.42
2022-10-15T08:31:31.912Z,3.03
2022-10-15T08:34:01.080Z,1.58
2022-10-15T08:36:30.520Z,2.67
2022-10-15T08:38:58.782Z,3.15
2022-10-15T08:41:32.729Z,2.45
2022-10-15T08:44:01.091Z,3.75
2022-10-15T08:46:36.419Z,4.45
2022-10-15T08:49:05.892Z,4.25
2022-10-15T08:51:42.580Z,5.00
2022-10-15T08:54:17.649Z,4.72
2022-10-15T08:56:49.384Z,2.57
2022-10-15T08:59:31.700Z,3.60
2022-10-15T09:02:03.541Z,3.97
2022-10-15T09:04:39.005Z,2.00
2022-10-15T09:07:14.402Z,1.48
2022-10-15T09:09:49.257Z,4.43
2022-10-15T09:12:36.772Z,1.83
2022-10-15T09:15:06.706Z,1.27
2022-10-15T09:17:37.623Z,2.67
2022-10-15T09:20:07.843Z,2.83
2022-10-15T09:22:37.956Z,1.50
2022-10-15T09:25:17.183Z,6.03
2022-10-15T09:27:49.111Z,1.92
2022-10-15T09:30:29.987Z,2.35
2022-10-15T09:33:04.366Z,2.33
2022-10-15T09:35:37.590Z,2.42
2022-10-15T09:38:24.169Z,2.63
2022-10-15T09:41:02.872Z,3.13
2022-10-15T09:43:35.757Z,1.17
2022-10-15T09:46:04.127Z,2.30
2022-10-15T09:48:37.513Z,1.80
2022-10-15T09:51:14.810Z,2.67
2022-10-15T09:53:53.378Z,4.28
2022-10-15T09:56:25.367Z,2.13
2022-10-15T09:58:56.355Z,1.77
2022-10-15T10:01:25.867Z,1.05
2022-10-15T10:03:56.487Z,1.52
2022-10-15T10:06:25.533Z,3.05
2022-10-15T10:08:59.407Z,1.42
2022-10-15T10:11:28.574Z,1.38
2022-10-15T10:13:58.597Z,1.33
2022-10-15T10:16:27.586Z,1.95
2022-10-15T10:19:06.515Z,1.52
2022-10-15T10:21:35.947Z,2.03
2022-10-15T10:24:21.577Z,1.20
2022-10-15T10:26:49.982Z,1.25
2022-10-15T10:29:33.024Z,1.08
2022-10-15T10:32:11.503Z,2.15
2022-10-15T10:34:39.773Z,1.90
2022-10-15T10:37:10.323Z,2.13
2022-10-15T10:39:39.925Z,1.55
2022-10-15T10:42:23.901Z,2.13
2022-10-15T10:44:54.119Z,1.83
2022-10-15T10:47:24.279Z,1.92
2022-10-15T10:49:56.653Z,1.00
2022-10-15T10:52:29.290Z,2.70
2022-10-15T10:55:02.855Z,2.95
2022-10-15T10:57:44.788Z,1.00
2022-10-15T11:00:17.447Z,2.22
2022-10-15T11:02:50.334Z,0.90
2022-10-15T11:05:25.676Z,1.05
2022-10-15T11:08:02.555Z,1.20
2022-10-15T11:10:40.342Z,1.25
2022-10-15T11:13:27.673Z,1.30
2022-10-15T11:16:04.637Z,2.00
2022-10-15T11:18:53.538Z,3.03
2022-10-15T11:21:30.270Z,1.08
2022-10-15T11:24:09.809Z,1.10
2022-10-15T11:27:16.750Z,1.23
2022-10-15T11:29:54.238Z,1.90
2022-10-15T11:33:02.001Z,2.40
2022-10-15T11:35:53.929Z,2.15
2022-10-15T11:38:30.341Z,1.05
2022-10-15T11:43:50.048Z,1.42
2022-10-15T11:46:24.398Z,1.52
2022-10-15T11:49:05.482Z,1.30
2022-10-15T11:51:42.669Z,1.33
2022-10-15T11:54:21.438Z,1.05
2022-10-15T11:56:52.478Z,1.02
2022-10-15T11:59:33.700Z,2.85
2022-10-15T12:02:04.931Z,2.95
2022-10-15T12:04:39.281Z,1.67
2022-10-15T12:07:14.109Z,1.65
2022-10-15T12:09:46.086Z,1.40
2022-10-15T12:12:23.130Z,1.25
2022-10-15T12:15:05.902Z,0.63
2022-10-15T12:17:42.118Z,3.38
2022-10-15T12:20:14.916Z,1.55
2022-10-15T12:22:56.592Z,0.95
2022-10-15T12:25:47.416Z,0.80
2022-10-15T12:28:19.603Z,0.90
2022-10-15T12:31:10.085Z,1.45
2022-10-15T12:33:40.489Z,3.33
2022-10-15T12:36:22.200Z,1.05
2022-10-15T12:38:58.846Z,1.73
2022-10-15T12:41:38.463Z,2.08
2022-10-15T12:44:09.366Z,3.88
2022-10-15T12:46:41.188Z,1.35
2022-10-15T12:49:42.719Z,1.80
2022-10-15T12:52:44.095Z,1.60
2022-10-15T12:55:25.412Z,2.78
2022-10-15T12:57:56.176Z,1.38
2022-10-15T13:00:42.485Z,2.55
2022-10-15T13:03:38.080Z,2.75
2022-10-15T13:06:24.230Z,1.90
2022-10-15T13:08:56.258Z,2.33
2022-10-15T13:11:28.443Z,1.30
2022-10-15T13:14:00.838Z,3.08
2022-10-15T13:16:29.695Z,1.48
2022-10-15T13:19:00.415Z,2.05
2022-10-15T13:21:48.837Z,1.38
2022-10-15T13:26:47.625Z,2.03
2022-10-15T13:29:19.822Z,1.98
2022-10-15T13:31:48.509Z,3.05
2022-10-15T13:34:28.021Z,1.30
2022-10-15T13:36:58.072Z,5.88
2022-10-15T13:39:31.287Z,1.73
2022-10-15T13:42:11.326Z,2.20
2022-10-15T13:44:39.405Z,2.33
2022-10-15T13:47:25.776Z,1.23
2022-10-15T13:50:12.362Z,2.72
2022-10-15T13:52:42.395Z,0.80
2022-10-15T13:55:22.014Z,1.23
2022-10-15T13:57:52.946Z,1.23
2022-10-15T14:00:24.272Z,1.17
2022-10-15T14:03:16.677Z,1.10
2022-10-15T14:05:48.216Z,2.30
2022-10-15T14:08:19.085Z,1.25
2022-10-15T14:10:47.626Z,1.60
2022-10-15T14:13:15.985Z,2.08
2022-10-15T14:15:53.571Z,1.10
2022-10-15T14:18:32.368Z,1.40
2022-10-15T14:21:03.006Z,2.60
2022-10-15T14:23:31.951Z,3.55
2022-10-15T14:26:02.655Z,2.28
2022-10-15T14:28:34.020Z,1.33
2022-10-15T14:31:02.648Z,1.33
2022-10-15T14:33:44.516Z,6.05
2022-10-15T14:36:24.447Z,2.13
2022-10-15T14:38:53.809Z,3.97
2022-10-15T14:41:28.954Z,1.85
2022-10-15T14:44:19.407Z,1.85
2022-10-15T14:46:50.376Z,2.47
2022-10-15T14:49:23.169Z,1.55
2022-10-15T14:51:59.079Z,1.85
2022-10-15T14:54:32.936Z,3.45
2022-10-15T14:57:01.926Z,2.95
2022-10-15T14:59:34.048Z,6.65
2022-10-15T15:02:04.907Z,2.90
2022-10-15T15:04:39.228Z,2.78
2022-10-15T15:07:22.849Z,2.00
2022-10-15T15:09:53.045Z,3.17
2022-10-15T15:12:27.639Z,1.83
2022-10-15T15:14:56.554Z,1.83
2022-10-15T15:17:26.422Z,3.78
2022-10-15T15:19:56.816Z,3.70
2022-10-15T15:22:29.636Z,2.03
2022-10-15T15:24:59.214Z,2.38
2022-10-15T15:27:29.643Z,2.38
2022-10-15T15:29:58.565Z,2.72
2022-10-15T15:32:26.910Z,3.63
2022-10-15T15:34:55.996Z,3.95
2022-10-15T15:37:27.314Z,1.73
2022-10-15T15:39:56.372Z,2.05
2022-10-15T15:42:26.595Z,2.92
2022-10-15T15:44:55.051Z,2.22
2022-10-15T15:47:23.111Z,2.10
2022-10-15T15:49:51.160Z,3.05
2022-10-15T15:52:19.256Z,3.95
2022-10-15T15:54:48.700Z,2.78
2022-10-15T15:57:16.722Z,2.67
2022-10-15T15:59:44.798Z,1.70
2022-10-15T16:02:14.176Z,3.85
2022-10-15T16:04:42.365Z,2.28
2022-10-15T16:07:13.366Z,2.65
2022-10-15T16:09:41.868Z,2.38
2022-10-15T16:12:11.395Z,2.17
2022-10-15T16:14:39.576Z,2.95
2022-10-15T16:17:07.658Z,4.78
2022-10-15T16:19:35.688Z,2.80
2022-10-15T16:22:03.778Z,4.38
2022-10-15T16:24:32.255Z,1.80
2022-10-15T16:27:00.716Z,2.60
2022-10-15T16:29:30.349Z,5.20
2022-10-15T16:31:58.350Z,2.45
2022-10-15T16:34:26.480Z,2.22
2022-10-15T16:36:54.518Z,3.50
2022-10-15T16:39:22.713Z,2.80
2022-10-15T16:41:50.935Z,4.07
2022-10-15T16:44:19.170Z,2.50
2022-10-15T16:46:48.760Z,3.50
2022-10-15T16:49:16.902Z,2.67
2022-10-15T16:51:44.981Z,5.15
2022-10-15T16:54:15.544Z,2.72
2022-10-15T16:56:43.786Z,3.75
2022-10-15T16:59:11.794Z,2.90
2022-10-15T17:01:39.974Z,5.00
2022-10-15T17:04:09.396Z,2.95
2022-10-15T17:06:37.373Z,3.75
2022-10-15T17:09:05.668Z,3.38
2022-10-15T17:11:35.813Z,2.95
2022-10-15T17:14:06.677Z,2.63
2022-10-15T17:16:37.502Z,2.95
2022-10-15T17:19:05.890Z,3.85
2022-10-15T17:21:36.125Z,2.83
2022-10-15T17:24:06.683Z,3.47
2022-10-15T17:26:37.090Z,5.13
2022-10-15T17:29:05.637Z,6.78
2022-10-15T17:31:34.346Z,3.22
2022-10-15T17:34:04.768Z,4.38
2022-10-15T17:36:36.529Z,2.45
2022-10-15T17:39:05.992Z,6.05
2022-10-15T17:41:34.227Z,2.47
2022-10-15T17:44:02.714Z,4.47
2022-10-15T17:46:31.591Z,2.05
2022-10-15T17:49:00.309Z,3.75
2022-10-15T17:51:30.578Z,3.92
2022-10-15T17:54:00.728Z,5.85
2022-10-15T17:56:31.821Z,2.70
2022-10-15T17:59:00.581Z,2.97
2022-10-15T18:01:56.697Z,3.10
2022-10-15T18:04:18.984Z,2.63
2022-10-15T18:06:46.960Z,2.40
2022-10-15T18:09:25.151Z,5.25
2022-10-15T18:11:58.212Z,3.42
2022-10-15T18:14:29.447Z,4.97
2022-10-15T18:16:57.634Z,2.70
2022-10-15T18:19:26.779Z,2.10
2022-10-15T18:21:55.447Z,2.67
2022-10-15T18:24:23.906Z,4.70
2022-10-15T18:26:52.749Z,1.77
2022-10-15T18:29:25.124Z,2.70
2022-10-15T18:31:57.392Z,3.25
2022-10-15T18:34:27.867Z,3.20
2022-10-15T18:36:55.869Z,2.88
2022-10-15T18:39:24.892Z,3.90
2022-10-15T18:41:53.245Z,6.50
2022-10-15T18:44:23.431Z,2.92
2022-10-15T18:46:52.153Z,3.17
2022-10-15T18:49:20.968Z,2.78
2022-10-15T18:51:52.006Z,4.05
2022-10-15T18:54:20.691Z,2.38
2022-10-15T18:56:49.009Z,2.70
2022-10-15T18:59:20.258Z,2.72
2022-10-15T19:01:51.186Z,2.58
2022-10-15T19:04:21.149Z,3.03
2022-10-15T19:06:50.993Z,1.75
2022-10-15T19:09:21.347Z,1.52
2022-10-15T19:11:51.382Z,3.80
2022-10-15T19:14:20.117Z,3.50
2022-10-15T19:16:49.987Z,2.58
2022-10-15T19:19:20.802Z,2.20
2022-10-15T19:21:50.234Z,4.20
2022-10-15T19:24:19.627Z,2.05
2022-10-15T19:26:49.826Z,1.60
2022-10-15T19:29:18.773Z,3.25
2022-10-15T19:31:50.612Z,1.75
2022-10-15T19:34:18.681Z,2.47
2022-10-15T19:36:49.054Z,0.95
2022-10-15T19:39:18.775Z,2.03
2022-10-15T19:41:46.905Z,4.20
2022-10-15T19:44:16.905Z,1.92
2022-10-15T19:46:46.151Z,2.17
2022-10-15T19:49:15.962Z,1.00
2022-10-15T19:51:44.270Z,1.80
2022-10-15T19:54:12.498Z,2.10
2022-10-15T19:56:40.581Z,2.63
2022-10-15T19:59:08.829Z,1.75
2022-10-15T20:01:36.912Z,2.97
2022-10-15T20:04:07.043Z,0.88
2022-10-15T20:06:39.055Z,1.90
2022-10-15T20:09:07.568Z,0.85
2022-10-15T20:11:36.074Z,1.17
2022-10-15T20:14:04.736Z,2.72
2022-10-15T20:16:33.683Z,2.30
2022-10-15T20:19:02.932Z,1.52
2022-10-15T20:21:30.933Z,1.75
2022-10-15T20:24:03.829Z,2.50
2022-10-15T20:26:31.894Z,0.93
2022-10-15T20:29:00.174Z,2.42
2022-10-15T20:31:32.676Z,1.75
2022-10-15T20:34:01.778Z,5.03
2022-10-15T20:36:29.901Z,0.70
2022-10-15T20:39:01.997Z,2.75
2022-10-15T20:41:31.305Z,1.50
2022-10-15T20:43:59.480Z,2.35
2022-10-15T20:46:32.824Z,4.25
2022-10-15T20:49:08.582Z,2.50
2022-10-15T20:51:38.603Z,0.70
2022-10-15T20:54:08.356Z,2.33
2022-10-15T20:56:36.704Z,2.78
2022-10-15T20:59:05.156Z,1.55
2022-10-15T21:01:33.591Z,2.55
2022-10-15T21:04:01.613Z,2.72
2022-10-15T21:06:29.967Z,1.80
2022-10-15T21:08:58.271Z,5.70
2022-10-15T21:11:27.828Z,3.38
2022-10-15T21:13:55.729Z,2.80
2022-10-15T21:16:27.353Z,4.80
2022-10-15T21:18:56.725Z,3.03
2022-10-15T21:21:24.828Z,2.20
2022-10-15T21:23:52.806Z,1.75
2022-10-15T21:26:21.815Z,1.75
2022-10-15T21:28:55.399Z,3.60
2022-10-15T21:31:23.902Z,2.40
2022-10-15T21:33:52.516Z,5.60
2022-10-15T21:36:22.672Z,4.32
2022-10-15T21:38:54.357Z,1.75
2022-10-15T21:41:22.611Z,1.73
2022-10-15T21:43:52.535Z,1.65
2022-10-15T21:46:20.608Z,3.05
2022-10-15T21:48:48.837Z,0.98
2022-10-15T21:51:18.433Z,0.40
2022-10-15T21:53:47.050Z,2.08
2022-10-15T21:56:15.820Z,1.02
2022-10-15T21:58:44.127Z,2.00
2022-10-15T22:01:19.125Z,2.58
2022-10-15T22:03:48.194Z,1.00
2022-10-15T22:06:17.626Z,1.27
2022-10-15T22:08:46.409Z,2.00
2022-10-15T22:11:16.893Z,1.40
2022-10-15T22:13:46.848Z,2.15
2022-10-15T22:16:17.469Z,0.98
2022-10-15T22:18:45.651Z,1.77
2022-10-15T22:21:16.179Z,2.10
2022-10-15T22:23:45.028Z,2.60
2022-10-15T22:26:13.259Z,2.95
2022-10-15T22:28:41.526Z,1.95
2022-10-15T22:31:11.703Z,1.25
2022-10-15T22:33:42.561Z,1.80
2022-10-15T22:36:14.579Z,1.20
2022-10-15T22:38:43.491Z,0.90
2022-10-15T22:41:13.394Z,2.67
2022-10-15T22:43:42.042Z,1.20
2022-10-15T22:46:10.265Z,1.23
2022-10-15T22:48:42.644Z,0.70
2022-10-15T22:51:14.019Z,4.53
2022-10-15T22:53:42.918Z,4.50
2022-10-15T22:56:14.275Z,1.83
2022-10-15T22:58:43.046Z,0.85
2022-10-15T23:01:13.430Z,1.40
2022-10-15T23:03:45.361Z,1.27
2022-10-15T23:06:14.086Z,3.83
2022-10-15T23:08:42.742Z,0.93
2022-10-15T23:11:13.039Z,1.77
2022-10-15T23:13:42.264Z,1.08
2022-10-15T23:16:14.852Z,3.42
2022-10-15T23:18:45.735Z,3.33
2022-10-15T23:21:15.907Z,0.73
2022-10-15T23:23:45.160Z,0.63
2022-10-15T23:26:15.011Z,1.40
2022-10-15T23:28:43.844Z,0.65
2022-10-15T23:31:17.908Z,1.60
2022-10-15T23:33:48.150Z,1.92
2022-10-15T23:36:17.746Z,3.67
2022-10-15T23:38:46.291Z,1.02
2022-10-15T23:41:15.360Z,2.25
2022-10-15T23:43:43.796Z,1.20
2022-10-15T23:46:12.417Z,1.15
2022-10-15T23:48:40.777Z,0.73
2022-10-15T23:51:20.747Z,1.67
2022-10-15T23:53:49.440Z,1.50
2022-10-15T23:56:18.270Z,0.80
2022-10-15T23:58:50.145Z,1.30
